createdAt,value
2019-01-21T05:52:03.359Z,0.05
2019-01-21T05:52:43.914Z,0.08
2019-01-21T05:53:24.475Z,0.1
2019-01-21T05:54:05.047Z,0.08
2019-01-21T05:54:45.600Z,0.08
2019-01-21T05:55:26.145Z,0.18
2019-01-21T05:56:06.690Z,0.04
2019-01-21T05:56:47.241Z,0.11
2019-01-21T05:57:27.803Z,0.11
2019-01-21T05:58:08.361Z,0.1
2019-01-21T05:58:48.916Z,0.1
2019-01-21T05:59:29.462Z,0.08
2019-01-21T06:00:10.017Z,0.1
2019-01-21T06:00:50.675Z,0.04
2019-01-21T06:01:31.298Z,0.1
2019-01-21T06:02:11.896Z,0.03
2019-01-21T06:02:52.478Z,0.19
2019-01-21T06:03:33.002Z,0.1
2019-01-21T06:04:13.549Z,0.05
2019-01-21T06:04:54.101Z,0.03
2019-01-21T06:05:34.654Z,0.07
2019-01-21T06:06:15.215Z,0.07
2019-01-21T06:06:55.768Z,0.12
2019-01-21T06:07:36.329Z,0.07
2019-01-21T06:08:16.874Z,0.04
2019-01-21T06:08:57.425Z,0.08
2019-01-21T06:09:37.986Z,0.03
2019-01-21T06:10:18.545Z,0.07
2019-01-21T06:10:59.088Z,0.08
2019-01-21T06:11:39.636Z,0.11
2019-01-21T06:12:20.213Z,0.07
2019-01-21T06:13:00.760Z,0.07
2019-01-21T06:13:41.315Z,0.04
2019-01-21T06:14:21.863Z,-0.07
2019-01-21T06:15:02.427Z,0.05
2019-01-21T06:15:42.989Z,0.01
2019-01-21T06:16:23.577Z,-0.07
2019-01-21T06:17:04.126Z,0.05
2019-01-21T06:17:44.703Z,0.08
2019-01-21T06:18:26.066Z,0.1
2019-01-21T06:19:06.015Z,0
2019-01-21T06:19:46.560Z,0.01
2019-01-21T06:20:27.133Z,0.05
2019-01-21T06:21:07.709Z,0
2019-01-21T06:21:48.267Z,0.08
2019-01-21T06:22:28.865Z,0.04
2019-01-21T06:23:09.447Z,0.15
2019-01-21T06:23:50.072Z,0.05
2019-01-21T06:24:30.638Z,0.05
2019-01-21T06:25:11.228Z,-0.02
2019-01-21T06:25:51.801Z,0.05
2019-01-21T06:26:32.373Z,-0.06
2019-01-21T06:27:12.930Z,-0.03
2019-01-21T06:27:53.528Z,-0.13
2019-01-21T06:28:34.247Z,-0.13
2019-01-21T06:29:14.834Z,-0.15
2019-01-21T06:29:55.409Z,-0.15
2019-01-21T06:30:36.041Z,-0.17
2019-01-21T06:31:16.730Z,-0.17
2019-01-21T06:31:57.280Z,-0.15
2019-01-21T06:32:37.870Z,-0.21
2019-01-21T06:33:18.432Z,-0.1
2019-01-21T06:33:58.984Z,-0.2
2019-01-21T06:34:39.541Z,-0.23
2019-01-21T06:35:20.103Z,-0.15
2019-01-21T06:36:00.651Z,-0.13
2019-01-21T06:36:41.198Z,-0.13
2019-01-21T06:37:21.730Z,-0.07
2019-01-21T06:38:02.325Z,-0.14
2019-01-21T06:38:42.903Z,-0.15
2019-01-21T06:39:23.464Z,-0.03
2019-01-21T06:40:04.028Z,-0.15
2019-01-21T06:40:44.591Z,-0.11
2019-01-21T06:41:25.129Z,-0.11
2019-01-21T06:42:05.704Z,-0.02
2019-01-21T06:42:46.277Z,0.03
2019-01-21T06:43:26.831Z,-0.06
2019-01-21T06:44:08.839Z,-0.02
2019-01-21T06:44:49.396Z,-0.02
2019-01-21T06:45:29.961Z,0.01
2019-01-21T06:46:10.546Z,-0.03
2019-01-21T06:46:51.164Z,-0.02
2019-01-21T06:47:31.707Z,-0.11
2019-01-21T06:48:12.274Z,-0.18
2019-01-21T06:48:52.911Z,-0.2
2019-01-21T06:49:33.510Z,-0.23
2019-01-21T06:50:14.055Z,-0.26
2019-01-21T06:50:54.646Z,-0.21
2019-01-21T06:51:35.210Z,-0.34
2019-01-21T06:52:15.790Z,-0.34
2019-01-21T06:52:56.371Z,-0.28
2019-01-21T06:53:36.922Z,-0.26
2019-01-21T06:54:17.515Z,-0.25
2019-01-21T06:54:58.082Z,-0.28
2019-01-21T06:55:38.689Z,-0.28
2019-01-21T06:56:19.248Z,-0.29
2019-01-21T06:56:59.824Z,-0.26
2019-01-21T06:57:40.426Z,-0.31
2019-01-21T06:58:21.016Z,-0.34
2019-01-21T06:59:01.703Z,-0.36
2019-01-21T06:59:42.268Z,-0.39
2019-01-21T07:00:22.855Z,-0.35
2019-01-21T07:01:03.475Z,-0.28
2019-01-21T07:01:44.044Z,-0.34
2019-01-21T07:02:24.645Z,-0.34
2019-01-21T07:03:05.275Z,-0.31
2019-01-21T07:03:45.813Z,-0.28
2019-01-21T07:04:26.383Z,-0.29
2019-01-21T07:05:06.991Z,-0.35
2019-01-21T07:05:47.549Z,-0.41
2019-01-21T07:06:28.275Z,-0.46
2019-01-21T07:07:08.850Z,-0.43
2019-01-21T07:07:49.488Z,-0.46
2019-01-21T07:08:30.046Z,-0.5
2019-01-21T07:09:10.620Z,-0.49
2019-01-21T07:09:51.174Z,-0.54
2019-01-21T07:10:31.738Z,-0.54
2019-01-21T07:11:12.313Z,-0.57
2019-01-21T07:11:52.872Z,-0.61
2019-01-21T07:12:33.430Z,-0.52
2019-01-21T07:13:14.027Z,-0.53
2019-01-21T07:13:54.596Z,-0.5
2019-01-21T07:14:35.163Z,-0.5
2019-01-21T07:15:15.718Z,-0.5
2019-01-21T07:15:56.797Z,-0.5
2019-01-21T07:16:37.348Z,-0.53
2019-01-21T07:17:17.902Z,-0.56
2019-01-21T07:17:58.488Z,-0.61
2019-01-21T07:18:39.068Z,-0.52
2019-01-21T07:19:19.636Z,-0.53
2019-01-21T07:20:00.203Z,-0.64
2019-01-21T07:20:40.777Z,-0.59
2019-01-21T07:21:21.342Z,-0.56
2019-01-21T07:22:01.921Z,-0.65
2019-01-21T07:22:42.508Z,-0.67
2019-01-21T07:23:23.085Z,-0.61
2019-01-21T07:24:03.685Z,-0.64
2019-01-21T07:24:44.245Z,-0.68
2019-01-21T07:25:25.060Z,-0.57
2019-01-21T07:26:05.645Z,-0.53
2019-01-21T07:26:46.211Z,-0.57
2019-01-21T07:27:26.782Z,-0.57
2019-01-21T07:28:07.369Z,-0.47
2019-01-21T07:28:47.943Z,-0.41
2019-01-21T07:29:28.515Z,-0.41
2019-01-21T07:30:09.126Z,-0.47
2019-01-21T07:30:49.736Z,-0.39
2019-01-21T07:31:30.323Z,-0.32
2019-01-21T07:32:10.890Z,-0.35
2019-01-21T07:32:51.503Z,-0.35
2019-01-21T07:33:32.057Z,-0.29
2019-01-21T07:34:12.612Z,-0.32
2019-01-21T07:34:53.155Z,-0.35
2019-01-21T07:35:33.759Z,-0.32
2019-01-21T07:36:14.318Z,-0.23
2019-01-21T07:36:54.897Z,-0.18
2019-01-21T07:37:35.481Z,-0.29
2019-01-21T07:38:16.057Z,-0.28
2019-01-21T07:38:56.606Z,-0.31
2019-01-21T07:39:37.177Z,-0.35
2019-01-21T07:40:17.775Z,-0.31
2019-01-21T07:40:58.344Z,-0.31
2019-01-21T07:41:38.897Z,-0.32
2019-01-21T07:42:19.445Z,-0.38
2019-01-21T07:43:00.353Z,-0.32
2019-01-21T07:43:40.682Z,-0.46
2019-01-21T07:44:21.212Z,-0.47
2019-01-21T07:45:01.789Z,-0.49
2019-01-21T07:45:42.352Z,-0.46
2019-01-21T07:46:22.917Z,-0.61
2019-01-21T07:47:03.978Z,-0.52
2019-01-21T07:47:44.544Z,-0.54
2019-01-21T07:48:25.096Z,-0.56
2019-01-21T07:49:05.694Z,-0.57
2019-01-21T07:49:46.270Z,-0.57
2019-01-21T07:50:26.811Z,-0.61
2019-01-21T07:51:07.367Z,-0.64
2019-01-21T07:51:47.934Z,-0.65
2019-01-21T07:52:28.516Z,-0.71
2019-01-21T07:53:09.094Z,-0.75
2019-01-21T07:53:49.636Z,-0.77
2019-01-21T07:54:30.212Z,-0.72
2019-01-21T07:55:10.783Z,-0.74
2019-01-21T07:55:51.322Z,-0.74
2019-01-21T07:56:31.897Z,-0.74
2019-01-21T07:57:12.433Z,-0.72
2019-01-21T07:57:53.008Z,-0.72
2019-01-21T07:58:33.567Z,-0.67
2019-01-21T07:59:14.137Z,-0.64
2019-01-21T07:59:54.694Z,-0.65
2019-01-21T08:00:35.243Z,-0.57
2019-01-21T08:01:15.829Z,-0.61
2019-01-21T08:01:56.390Z,-0.54
2019-01-21T08:02:36.987Z,-0.5
2019-01-21T08:03:17.558Z,-0.47
2019-01-21T08:03:58.102Z,-0.47
2019-01-21T08:04:38.667Z,-0.43
2019-01-21T08:05:19.245Z,-0.46
2019-01-21T08:05:59.825Z,-0.44
2019-01-21T08:06:40.603Z,-0.47
2019-01-21T08:07:21.168Z,-0.49
2019-01-21T08:08:01.714Z,-0.43
2019-01-21T08:08:42.269Z,-0.43
2019-01-21T08:09:22.818Z,-0.5
2019-01-21T08:10:03.373Z,-0.5
2019-01-21T08:10:43.950Z,-0.52
2019-01-21T08:11:24.543Z,-0.62
2019-01-21T08:12:05.082Z,-0.54
2019-01-21T08:12:45.661Z,-0.47
2019-01-21T08:13:26.308Z,-0.59
2019-01-21T08:14:06.906Z,-0.59
2019-01-21T08:14:47.464Z,-0.53
2019-01-21T08:15:28.019Z,-0.62
2019-01-21T08:16:08.610Z,-0.46
2019-01-21T08:16:49.179Z,-0.5
2019-01-21T08:17:29.751Z,-0.5
2019-01-21T08:18:10.321Z,-0.5
2019-01-21T08:18:50.868Z,-0.47
2019-01-21T08:19:31.443Z,-0.5
2019-01-21T08:20:12.011Z,-0.52
2019-01-21T08:20:52.581Z,-0.5
2019-01-21T08:21:33.138Z,-0.46
2019-01-21T08:22:13.698Z,-0.49
2019-01-21T08:22:54.270Z,-0.39
2019-01-21T08:23:34.885Z,-0.43
2019-01-21T08:24:15.446Z,-0.41
2019-01-21T08:24:56.014Z,-0.47
2019-01-21T08:25:36.589Z,-0.39
2019-01-21T08:26:17.182Z,-0.46
2019-01-21T08:26:57.748Z,-0.43
2019-01-21T08:27:38.327Z,-0.39
2019-01-21T08:28:18.934Z,-0.36
2019-01-21T08:28:59.480Z,-0.39
2019-01-21T08:29:40.046Z,-0.47
2019-01-21T08:30:20.599Z,-0.44
2019-01-21T08:31:01.155Z,-0.47
2019-01-21T08:31:41.713Z,-0.47
2019-01-21T08:32:22.269Z,-0.47
2019-01-21T08:33:02.860Z,-0.46
2019-01-21T08:33:43.510Z,-0.47
2019-01-21T08:34:24.069Z,-0.49
2019-01-21T08:35:04.655Z,-0.44
2019-01-21T08:35:45.215Z,-0.5
2019-01-21T08:36:25.801Z,-0.5
2019-01-21T08:37:06.356Z,-0.53
2019-01-21T08:37:46.923Z,-0.53
2019-01-21T08:38:27.497Z,-0.56
2019-01-21T08:39:08.077Z,-0.64
2019-01-21T08:39:48.741Z,-0.56
2019-01-21T08:40:29.229Z,-0.56
2019-01-21T08:41:09.802Z,-0.53
2019-01-21T08:41:50.360Z,-0.54
2019-01-21T08:42:30.950Z,-0.54
2019-01-21T08:43:11.537Z,-0.46
2019-01-21T08:43:52.113Z,-0.41
2019-01-21T08:44:32.660Z,-0.44
2019-01-21T08:45:13.268Z,-0.41
2019-01-21T08:45:53.804Z,-0.39
2019-01-21T08:46:34.385Z,-0.46
2019-01-21T08:47:14.942Z,-0.5
2019-01-21T08:47:55.517Z,-0.56
2019-01-21T08:48:36.073Z,-0.61
2019-01-21T08:49:16.649Z,-0.5
2019-01-21T08:49:57.229Z,-0.56
2019-01-21T08:50:37.796Z,-0.54
2019-01-21T08:51:18.378Z,-0.52
2019-01-21T08:51:58.953Z,-0.59
2019-01-21T08:52:39.529Z,-0.61
2019-01-21T08:53:20.129Z,-0.57
2019-01-21T08:54:00.709Z,-0.52
2019-01-21T08:54:41.272Z,-0.53
2019-01-21T08:55:21.848Z,-0.53
2019-01-21T08:56:02.427Z,-0.65
2019-01-21T08:56:42.995Z,-0.64
2019-01-21T08:57:23.536Z,-0.64
2019-01-21T08:58:04.624Z,-0.67
2019-01-21T08:58:44.648Z,-0.68
2019-01-21T08:59:25.223Z,-0.7
2019-01-21T09:00:05.763Z,-0.71
2019-01-21T09:00:46.327Z,-0.67
2019-01-21T09:01:26.895Z,-0.74
2019-01-21T09:02:07.462Z,-0.67
2019-01-21T09:02:48.015Z,-0.67
2019-01-21T09:03:28.579Z,-0.64
2019-01-21T09:04:09.139Z,-0.74
2019-01-21T09:04:49.698Z,-0.74
2019-01-21T09:05:30.264Z,-0.7
2019-01-21T09:06:10.819Z,-0.71
2019-01-21T09:06:51.403Z,-0.77
2019-01-21T09:07:31.959Z,-0.72
2019-01-21T09:08:12.527Z,-0.72
2019-01-21T09:08:53.093Z,-0.86
2019-01-21T09:09:33.659Z,-0.78
2019-01-21T09:10:14.215Z,-0.85
2019-01-21T09:10:54.779Z,-0.83
2019-01-21T09:11:35.329Z,-0.83
2019-01-21T09:12:15.905Z,-0.78
2019-01-21T09:12:56.493Z,-0.82
2019-01-21T09:13:37.054Z,-0.75
2019-01-21T09:14:17.614Z,-0.71
2019-01-21T09:14:58.193Z,-0.72
2019-01-21T09:15:38.745Z,-0.65
2019-01-21T09:16:19.296Z,-0.64
2019-01-21T09:16:59.855Z,-0.67
2019-01-21T09:17:40.419Z,-0.64
2019-01-21T09:18:20.973Z,-0.64
2019-01-21T09:19:01.540Z,-0.65
2019-01-21T09:19:42.105Z,-0.64
2019-01-21T09:20:22.645Z,-0.65
2019-01-21T09:21:03.233Z,-0.64
2019-01-21T09:21:43.767Z,-0.49
2019-01-21T09:22:24.326Z,-0.49
2019-01-21T09:23:04.892Z,-0.57
2019-01-21T09:23:45.477Z,-0.64
2019-01-21T09:24:26.046Z,-0.64
2019-01-21T09:25:06.617Z,-0.65
2019-01-21T09:25:47.173Z,-0.72
2019-01-21T09:26:27.768Z,-0.71
2019-01-21T09:27:08.339Z,-0.71
2019-01-21T09:27:48.906Z,-0.74
2019-01-21T09:28:29.493Z,-0.72
2019-01-21T09:29:10.039Z,-0.72
2019-01-21T09:29:50.615Z,-0.71
2019-01-21T09:30:31.174Z,-0.71
2019-01-21T09:31:11.754Z,-0.71
2019-01-21T09:31:52.322Z,-0.75
2019-01-21T09:32:32.904Z,-0.8
2019-01-21T09:33:13.462Z,-0.82
2019-01-21T09:33:54.017Z,-0.89
2019-01-21T09:34:34.554Z,-0.85
2019-01-21T09:35:15.116Z,-0.89
2019-01-21T09:35:55.675Z,-0.91
2019-01-21T09:36:36.236Z,-0.97
2019-01-21T09:37:16.803Z,-0.93
2019-01-21T09:37:57.356Z,-0.89
2019-01-21T09:38:37.906Z,-0.99
2019-01-21T09:39:18.459Z,-0.96
2019-01-21T09:39:59.029Z,-0.94
2019-01-21T09:40:39.586Z,-0.96
2019-01-21T09:41:20.164Z,-0.9
2019-01-21T09:42:00.715Z,-0.93
2019-01-21T09:42:41.279Z,-0.86
2019-01-21T09:43:21.823Z,-0.78
2019-01-21T09:44:02.390Z,-0.75
2019-01-21T09:44:42.949Z,-0.75
2019-01-21T09:45:23.495Z,-0.64
2019-01-21T09:46:04.045Z,-0.64
2019-01-21T09:46:44.614Z,-0.67
2019-01-21T09:47:25.169Z,-0.57
2019-01-21T09:48:05.746Z,-0.64
2019-01-21T09:48:46.294Z,-0.56
2019-01-21T09:49:26.856Z,-0.53
2019-01-21T09:50:07.414Z,-0.52
2019-01-21T09:50:47.973Z,-0.54
2019-01-21T09:51:28.540Z,-0.53
2019-01-21T09:52:09.098Z,-0.47
2019-01-21T09:52:49.683Z,-0.5
2019-01-21T09:53:30.251Z,-0.49
2019-01-21T09:54:10.808Z,-0.52
2019-01-21T09:54:51.369Z,-0.59
2019-01-21T09:55:31.931Z,-0.52
2019-01-21T09:56:12.499Z,-0.49
2019-01-21T09:56:53.047Z,-0.56
2019-01-21T09:57:33.616Z,-0.61
2019-01-21T09:58:14.210Z,-0.53
2019-01-21T09:58:54.762Z,-0.54
2019-01-21T09:59:35.317Z,-0.52
2019-01-21T10:00:15.902Z,-0.59
2019-01-21T10:00:56.489Z,-0.57
2019-01-21T10:01:37.039Z,-0.44
2019-01-21T10:02:17.601Z,-0.47
2019-01-21T10:02:58.184Z,-0.47
2019-01-21T10:03:38.737Z,-0.39
2019-01-21T10:04:19.307Z,-0.41
2019-01-21T10:04:59.863Z,-0.41
2019-01-21T10:05:40.419Z,-0.41
2019-01-21T10:06:20.996Z,-0.32
2019-01-21T10:07:01.809Z,-0.41
2019-01-21T10:07:42.378Z,-0.31
2019-01-21T10:08:22.987Z,-0.26
2019-01-21T10:09:03.537Z,-0.31
2019-01-21T10:09:44.095Z,-0.39
2019-01-21T10:10:24.678Z,-0.39
2019-01-21T10:11:05.343Z,-0.41
2019-01-21T10:11:45.900Z,-0.38
2019-01-21T10:12:26.476Z,-0.41
2019-01-21T10:13:07.087Z,-0.61
2019-01-21T10:13:47.655Z,-0.52
2019-01-21T10:14:28.219Z,-0.53
2019-01-21T10:15:08.781Z,-0.65
2019-01-21T10:15:49.352Z,-0.61
2019-01-21T10:16:29.920Z,-0.57
2019-01-21T10:17:10.493Z,-0.56
2019-01-21T10:17:51.052Z,-0.54
2019-01-21T10:18:31.637Z,-0.49
2019-01-21T10:19:12.217Z,-0.47
2019-01-21T10:19:52.766Z,-0.61
2019-01-21T10:20:33.343Z,-0.52
2019-01-21T10:21:13.940Z,-0.57
2019-01-21T10:21:54.586Z,-0.53
2019-01-21T10:22:35.170Z,-0.56
2019-01-21T10:23:17.056Z,-0.54
2019-01-21T10:23:56.348Z,-0.5
2019-01-21T10:24:36.940Z,-0.43
2019-01-21T10:25:17.521Z,-0.41
2019-01-21T10:25:58.177Z,-0.44
2019-01-21T10:26:38.682Z,-0.36
2019-01-21T10:27:19.270Z,-0.34
2019-01-21T10:27:59.848Z,-0.31
2019-01-21T10:28:41.640Z,-0.28
2019-01-21T10:29:20.982Z,-0.26
2019-01-21T10:30:02.327Z,-0.25
2019-01-21T10:30:42.935Z,-0.23
2019-01-21T10:31:23.486Z,-0.34
2019-01-21T10:32:04.204Z,-0.34
2019-01-21T10:32:44.770Z,-0.35
2019-01-21T10:33:25.352Z,-0.21
2019-01-21T10:34:05.915Z,-0.18
2019-01-21T10:34:46.486Z,-0.17
2019-01-21T10:35:27.192Z,-0.18
2019-01-21T10:36:07.782Z,-0.2
2019-01-21T10:36:48.398Z,-0.15
2019-01-21T10:37:29.029Z,-0.2
2019-01-21T10:38:09.643Z,-0.11
2019-01-21T10:38:50.237Z,-0.14
2019-01-21T10:39:30.792Z,-0.02
2019-01-21T10:40:11.348Z,-0.07
2019-01-21T10:40:51.928Z,0.03
2019-01-21T10:41:32.486Z,-0.02
2019-01-21T10:42:13.054Z,0.01
2019-01-21T10:42:53.619Z,0.03
2019-01-21T10:43:34.582Z,0.05
2019-01-21T10:44:15.146Z,-0.07
2019-01-21T10:44:55.711Z,0.08
2019-01-21T10:45:36.293Z,0.04
2019-01-21T10:46:16.839Z,0.04
2019-01-21T10:46:57.425Z,-0.02
2019-01-21T10:47:38.048Z,0.07
2019-01-21T10:48:18.702Z,-0.03
2019-01-21T10:48:59.275Z,0.04
2019-01-21T10:49:39.837Z,-0.02
2019-01-21T10:50:20.418Z,0.03
2019-01-21T10:51:00.959Z,0.08
2019-01-21T10:51:41.512Z,-0.06
2019-01-21T10:52:22.091Z,0
2019-01-21T10:53:02.653Z,-0.08
2019-01-21T10:53:43.276Z,-0.17
2019-01-21T10:54:23.868Z,-0.13
2019-01-21T10:55:04.428Z,-0.17
2019-01-21T10:55:45.016Z,-0.15
2019-01-21T10:56:25.563Z,-0.28
2019-01-21T10:57:06.130Z,-0.35
2019-01-21T10:57:46.726Z,-0.2
2019-01-21T10:58:27.273Z,-0.23
2019-01-21T10:59:07.819Z,-0.17
2019-01-21T10:59:48.383Z,-0.11
2019-01-21T11:00:29.075Z,-0.18
2019-01-21T11:01:09.784Z,-0.11
2019-01-21T11:01:50.343Z,-0.11
2019-01-21T11:02:30.917Z,-0.13
2019-01-21T11:03:11.866Z,-0.21
2019-01-21T11:03:52.729Z,-0.17
2019-01-21T11:04:33.582Z,-0.23
2019-01-21T11:05:14.146Z,-0.21
2019-01-21T11:05:55.046Z,-0.18
2019-01-21T11:06:35.715Z,-0.18
2019-01-21T11:07:16.293Z,-0.15
2019-01-21T11:07:56.873Z,-0.25
2019-01-21T11:08:37.446Z,-0.28
2019-01-21T11:09:18.148Z,-0.17
2019-01-21T11:09:58.816Z,-0.32
2019-01-21T11:10:39.423Z,-0.32
2019-01-21T11:11:20.143Z,-0.23
2019-01-21T11:12:00.703Z,-0.29
2019-01-21T11:12:41.249Z,-0.32
2019-01-21T11:13:21.831Z,-0.28
2019-01-21T11:14:02.445Z,-0.36
2019-01-21T11:14:43.014Z,-0.32
2019-01-21T11:15:23.631Z,-0.38
2019-01-21T11:16:04.285Z,-0.28
2019-01-21T11:16:44.862Z,-0.23
2019-01-21T11:18:57.649Z,-0.31
2019-01-21T11:19:38.200Z,-0.31
2019-01-21T11:20:18.771Z,-0.36
2019-01-21T11:20:59.324Z,-0.06
2019-01-21T11:21:39.919Z,0.31
2019-01-21T11:22:20.475Z,0.55
2019-01-21T11:23:01.044Z,0.92
2019-01-21T11:23:41.679Z,1.2
2019-01-21T11:24:22.214Z,1.5
2019-01-21T11:25:02.791Z,1.74
2019-01-21T11:25:43.382Z,1.94
2019-01-21T11:26:23.988Z,2.13
2019-01-21T11:27:04.519Z,2.29
2019-01-21T11:27:45.310Z,2.44
2019-01-21T11:28:25.888Z,2.57
2019-01-21T11:29:06.432Z,2.57
2019-01-21T11:29:46.985Z,2.54
2019-01-21T11:30:27.569Z,2.42
2019-01-21T11:31:08.116Z,2.24
2019-01-21T11:31:48.678Z,2.08
2019-01-21T11:32:29.236Z,1.97
2019-01-21T11:33:09.786Z,1.7
2019-01-21T11:33:50.382Z,1.49
2019-01-21T11:34:30.943Z,1.3
2019-01-21T11:35:11.502Z,1.13
2019-01-21T11:35:52.097Z,1.13
2019-01-21T11:36:32.650Z,0.99
2019-01-21T11:37:13.206Z,0.94
2019-01-21T11:37:53.776Z,0.81
2019-01-21T11:38:34.315Z,0.77
2019-01-21T11:39:14.876Z,0.77
2019-01-21T11:39:55.435Z,0.74
2019-01-21T11:40:35.987Z,0.65
2019-01-21T11:41:16.536Z,0.74
2019-01-21T11:41:57.100Z,0.65
2019-01-21T11:42:37.658Z,0.69
2019-01-21T11:43:18.206Z,0.7
2019-01-21T11:43:58.769Z,0.68
2019-01-21T11:44:39.344Z,0.69
2019-01-21T11:45:19.963Z,0.59
2019-01-21T11:46:00.487Z,0.63
2019-01-21T11:46:41.064Z,0.65
2019-01-21T11:47:21.610Z,0.68
2019-01-21T11:48:02.164Z,0.68
2019-01-21T11:48:43.214Z,0.73
2019-01-21T11:49:23.295Z,0.68
2019-01-21T11:50:03.849Z,0.68
2019-01-21T11:50:44.447Z,0.66
2019-01-21T11:51:25.104Z,0.62
2019-01-21T11:52:05.614Z,0.69
2019-01-21T11:52:46.168Z,0.68
2019-01-21T11:53:26.752Z,0.69
2019-01-21T11:54:07.322Z,0.59
2019-01-21T11:54:47.877Z,0.52
2019-01-21T11:55:28.437Z,0.5
2019-01-21T11:56:08.978Z,0.58
2019-01-21T11:56:49.553Z,0.5
2019-01-21T11:57:30.111Z,0.49
2019-01-21T11:58:10.654Z,0.5
2019-01-21T11:58:51.247Z,0.46
2019-01-21T11:59:31.788Z,0.58
2019-01-21T12:00:12.362Z,0.52
2019-01-21T12:00:52.901Z,0.52
2019-01-21T12:01:33.477Z,0.41
2019-01-21T12:02:14.050Z,0.41
2019-01-21T12:02:54.626Z,0.52
2019-01-21T12:03:35.168Z,0.41
2019-01-21T12:04:15.718Z,0.5
2019-01-21T12:04:56.272Z,0.44
2019-01-21T12:05:36.826Z,0.4
2019-01-21T12:06:17.371Z,0.47
2019-01-21T12:06:57.925Z,0.43
2019-01-21T12:07:38.493Z,0.31
2019-01-21T12:08:19.054Z,0.36
2019-01-21T12:08:59.617Z,0.23
2019-01-21T12:09:40.170Z,0.22
2019-01-21T12:10:20.716Z,0.22
2019-01-21T12:11:01.277Z,0.28
2019-01-21T12:11:41.837Z,0.26
2019-01-21T12:12:22.393Z,0.21
2019-01-21T12:13:02.974Z,0.23
2019-01-21T12:13:43.567Z,0.22
2019-01-21T12:14:24.116Z,0.23
2019-01-21T12:15:04.662Z,0.19
2019-01-21T12:15:45.246Z,0.23
2019-01-21T12:16:25.803Z,0.16
2019-01-21T12:17:06.461Z,0.15
2019-01-21T12:17:47.041Z,0.05
2019-01-21T12:18:27.599Z,0.05
2019-01-21T12:19:08.147Z,0.12
2019-01-21T12:19:48.703Z,0.1
2019-01-21T12:20:29.255Z,0.08
2019-01-21T12:21:09.814Z,0.07
2019-01-21T12:21:50.365Z,0.01
2019-01-21T12:22:30.907Z,0.04
2019-01-21T12:23:11.464Z,0.03
2019-01-21T12:23:52.011Z,0.01
2019-01-21T12:24:32.567Z,0.05
2019-01-21T12:25:13.109Z,0.07
2019-01-21T12:25:53.662Z,0.11
2019-01-21T12:26:34.245Z,0.08
2019-01-21T12:27:14.887Z,0.05
2019-01-21T12:27:55.435Z,0.11
2019-01-21T12:28:35.964Z,0.04
2019-01-21T12:29:16.526Z,0.04
2019-01-21T12:29:57.077Z,0.07
2019-01-21T12:30:37.638Z,-0.07
2019-01-21T12:31:18.204Z,0.07
2019-01-21T12:31:58.743Z,0.04
2019-01-21T12:32:39.320Z,0.04
2019-01-21T12:33:19.873Z,0.07
2019-01-21T12:34:00.439Z,0.1
2019-01-21T12:34:40.996Z,0.01
2019-01-21T12:35:21.541Z,0.04
2019-01-21T12:36:02.095Z,0.03
2019-01-21T12:36:42.647Z,0.07
2019-01-21T12:37:23.200Z,0.05
2019-01-21T12:38:03.745Z,-0.02
2019-01-21T12:38:44.303Z,-0.02
2019-01-21T12:39:24.860Z,-0.02
2019-01-21T12:40:05.401Z,-0.06
2019-01-21T12:40:45.951Z,-0.02
2019-01-21T12:41:26.508Z,0
2019-01-21T12:42:07.132Z,-0.06
2019-01-21T12:42:47.681Z,-0.06
2019-01-21T12:43:28.232Z,0.03
2019-01-21T12:44:08.785Z,-0.03
2019-01-21T12:44:49.338Z,-0.06
2019-01-21T12:45:29.934Z,0.03
2019-01-21T12:46:10.492Z,0.01
2019-01-21T12:46:51.037Z,0.03
2019-01-21T12:47:31.616Z,0.05
2019-01-21T12:48:12.170Z,0.05
2019-01-21T12:48:52.739Z,-0.02
2019-01-21T12:49:33.290Z,0.1
2019-01-21T12:50:13.836Z,0.16
2019-01-21T12:50:54.399Z,0.11
2019-01-21T12:51:34.967Z,0.18
2019-01-21T12:52:15.565Z,0.18
2019-01-21T12:52:56.159Z,0.19
2019-01-21T12:53:36.681Z,0.1
2019-01-21T12:54:17.250Z,0.23
2019-01-21T12:54:57.802Z,0.26
2019-01-21T12:55:38.404Z,0.16
2019-01-21T12:56:18.928Z,0.18
2019-01-21T12:56:59.494Z,0.26
2019-01-21T12:57:40.041Z,0.12
2019-01-21T12:58:20.599Z,0.16
2019-01-21T12:59:01.157Z,0.23
2019-01-21T12:59:41.710Z,0.22
2019-01-21T13:00:22.299Z,0.16
2019-01-21T13:01:02.880Z,0.15
2019-01-21T13:01:43.446Z,0.15
2019-01-21T13:02:24.005Z,0.19
2019-01-21T13:03:04.562Z,0.15
2019-01-21T13:03:45.124Z,0.21
2019-01-21T13:04:25.688Z,0.21
2019-01-21T13:05:06.246Z,0.21
2019-01-21T13:05:46.792Z,0.18
2019-01-21T13:06:27.350Z,0.22
2019-01-21T13:07:08.183Z,0.19
2019-01-21T13:07:48.746Z,0.26
2019-01-21T13:08:29.306Z,0.22
2019-01-21T13:09:09.841Z,0.25
2019-01-21T13:09:50.408Z,0.26
2019-01-21T13:10:30.965Z,0.26
2019-01-21T13:11:11.519Z,0.19
2019-01-21T13:11:52.113Z,0.26
2019-01-21T13:12:32.743Z,0.19
2019-01-21T13:13:13.296Z,0.22
2019-01-21T13:13:53.850Z,0.23
2019-01-21T13:14:34.421Z,0.18
2019-01-21T13:15:14.968Z,0.23
2019-01-21T13:15:55.577Z,0.25
2019-01-21T13:16:36.127Z,0.32
2019-01-21T13:17:16.697Z,0.21
2019-01-21T13:17:57.261Z,0.26
2019-01-21T13:18:37.814Z,0.23
2019-01-21T13:19:18.382Z,0.21
2019-01-21T13:19:58.976Z,0.25
2019-01-21T13:20:39.538Z,0.18
2019-01-21T13:21:20.164Z,0.23
2019-01-21T13:22:00.772Z,0.25
2019-01-21T13:22:41.311Z,0.26
2019-01-21T13:23:21.879Z,0.18
2019-01-21T13:24:02.416Z,0.12
2019-01-21T13:24:42.967Z,0.26
2019-01-21T13:25:23.600Z,0.26
2019-01-21T13:26:04.079Z,0.26
2019-01-21T13:26:44.641Z,0.25
2019-01-21T13:27:25.197Z,0.23
2019-01-21T13:28:05.746Z,0.26
2019-01-21T13:28:46.294Z,0.22
2019-01-21T13:29:26.870Z,0.25
2019-01-21T13:30:07.468Z,0.19
2019-01-21T13:30:48.062Z,0.21
2019-01-21T13:31:28.580Z,0.28
2019-01-21T13:32:09.126Z,0.22
2019-01-21T13:32:49.699Z,0.23
2019-01-21T13:33:30.274Z,0.25
2019-01-21T13:34:10.859Z,0.31
2019-01-21T13:34:51.412Z,0.23
2019-01-21T13:35:32.011Z,0.28
2019-01-21T13:36:12.556Z,0.23
2019-01-21T13:36:53.110Z,0.28
2019-01-21T13:37:33.658Z,0.32
2019-01-21T13:38:14.225Z,0.26
2019-01-21T13:38:54.808Z,0.29
2019-01-21T13:39:35.408Z,0.36
2019-01-21T13:40:15.931Z,0.32
2019-01-21T13:40:56.483Z,0.34
2019-01-21T13:41:37.043Z,0.4
2019-01-21T13:42:17.600Z,0.37
2019-01-21T13:42:58.161Z,0.32
2019-01-21T13:43:38.705Z,0.37
2019-01-21T13:44:19.266Z,0.29
2019-01-21T13:44:59.853Z,0.32
2019-01-21T13:45:40.422Z,0.37
2019-01-21T13:46:20.962Z,0.31
2019-01-21T13:47:01.517Z,0.41
2019-01-21T13:47:42.071Z,0.31
2019-01-21T13:48:22.654Z,0.43
2019-01-21T13:49:03.222Z,0.41
2019-01-21T13:49:43.823Z,0.43
2019-01-21T13:50:24.352Z,0.41
2019-01-21T13:51:04.893Z,0.41
2019-01-21T13:51:45.441Z,0.39
2019-01-21T13:52:25.991Z,0.4
2019-01-21T13:53:06.547Z,0.44
2019-01-21T13:53:47.114Z,0.47
2019-01-21T13:54:27.671Z,0.37
2019-01-21T13:55:08.232Z,0.4
2019-01-21T13:55:48.782Z,0.4
2019-01-21T13:56:29.342Z,0.41
2019-01-21T13:57:09.903Z,0.46
2019-01-21T13:57:50.464Z,0.41
2019-01-21T13:58:31.052Z,0.44
2019-01-21T13:59:11.637Z,0.41
2019-01-21T13:59:52.244Z,0.47
2019-01-21T14:00:32.754Z,0.43
2019-01-21T14:01:13.367Z,0.41
2019-01-21T14:01:53.961Z,0.46
2019-01-21T14:02:34.512Z,0.36
2019-01-21T14:03:15.061Z,0.39
2019-01-21T14:03:55.620Z,0.44
2019-01-21T14:04:36.169Z,0.41
2019-01-21T14:05:16.730Z,0.4
2019-01-21T14:05:57.283Z,0.41
2019-01-21T14:06:37.833Z,0.44
2019-01-21T14:07:18.647Z,0.43
2019-01-21T14:07:59.182Z,0.41
2019-01-21T14:08:39.728Z,0.47
2019-01-21T14:09:20.299Z,0.46
2019-01-21T14:10:00.857Z,0.4
2019-01-21T14:10:41.433Z,0.4
2019-01-21T14:11:22.496Z,0.49
2019-01-21T14:12:03.064Z,0.4
2019-01-21T14:12:43.607Z,0.39
2019-01-21T14:13:26.458Z,0.34
2019-01-21T14:14:04.755Z,0.34
2019-01-21T14:14:45.325Z,0.31
2019-01-21T14:15:25.878Z,0.32
2019-01-21T14:16:06.448Z,0.29
2019-01-21T14:16:46.998Z,0.32
2019-01-21T14:17:27.556Z,0.36
2019-01-21T14:18:08.135Z,0.34
2019-01-21T14:18:48.696Z,0.34
2019-01-21T14:19:29.354Z,0.34
2019-01-21T14:20:10.013Z,0.36
2019-01-21T14:20:50.572Z,0.37
2019-01-21T14:21:31.126Z,0.34
2019-01-21T14:22:11.704Z,0.31
2019-01-21T14:22:52.264Z,0.36
2019-01-21T14:23:32.830Z,0.36
2019-01-21T14:24:13.379Z,0.46
2019-01-21T14:24:53.948Z,0.44
2019-01-21T14:25:34.509Z,0.4
2019-01-21T14:26:15.142Z,0.4
2019-01-21T14:26:55.696Z,0.37
2019-01-21T14:27:36.247Z,0.52
2019-01-21T14:28:16.822Z,0.44
2019-01-21T14:28:57.389Z,0.44
2019-01-21T14:29:37.963Z,0.39
2019-01-21T14:30:18.529Z,0.43
2019-01-21T14:30:59.075Z,0.37
2019-01-21T14:31:39.632Z,0.37
2019-01-21T14:32:20.196Z,0.29
2019-01-21T14:33:00.855Z,0.26
2019-01-21T14:33:41.411Z,0.26
2019-01-21T14:34:21.975Z,0.31
2019-01-21T14:35:05.552Z,0.39
2019-01-21T14:35:46.539Z,0.36
2019-01-21T14:36:27.208Z,0.29
2019-01-21T14:37:07.787Z,0.29
2019-01-21T14:37:48.680Z,0.31
2019-01-21T14:38:29.257Z,0.32
2019-01-21T14:39:09.803Z,0.36
2019-01-21T14:39:50.357Z,0.31
2019-01-21T14:40:30.944Z,0.36
2019-01-21T14:41:11.504Z,0.31
2019-01-21T14:41:52.066Z,0.32
2019-01-21T14:42:32.654Z,0.32
2019-01-21T14:43:13.204Z,0.28
2019-01-21T14:43:53.964Z,0.23
2019-01-21T14:44:34.518Z,0.23
2019-01-21T14:45:15.071Z,0.19